UAL128 KDEN-KMEM
Flight info
| Callsign | UAL128 |
|---|---|
| Flight time | 1h 45m |
| Altitude | 37000 |
| Route | EPKEE7 DUUZE ICT RZC BRBBQ3 |
| Aircraft | A319/M-SDE3FGHIRWY/LB1 |
Departure
| Time | 2026-05-08 02:57 |
|---|---|
| Airport | Denver International Airport (KDEN) |
Arrival
| Time | 2026-05-08 04:42 |
|---|---|
| Airport | Memphis International Airport (KMEM) |
| Time | Latitude | Longitude | Altitude | Speed | Heading |
|---|---|---|---|---|---|
| 2026-05-08 02:15 | 39.85803 | -104.67900 | 5377 ft | 0 kts | 359° |
| 2026-05-08 02:39 | 39.85796 | -104.67900 | 5380 ft | 4 kts | 359° |
| 2026-05-08 02:39 | 39.85769 | -104.67899 | 5379 ft | 4 kts | 359° |
| 2026-05-08 02:40 | 39.85742 | -104.67899 | 5378 ft | 4 kts | 359° |
| 2026-05-08 02:40 | 39.85731 | -104.67899 | 5377 ft | 0 kts | 359° |
| 2026-05-08 02:49 | 39.85732 | -104.67898 | 5377 ft | 1 kts | 6° |
| 2026-05-08 02:49 | 39.85733 | -104.67889 | 5375 ft | 2 kts | 76° |
| 2026-05-08 02:49 | 39.85701 | -104.67852 | 5378 ft | 10 kts | 141° |
| 2026-05-08 02:49 | 39.85667 | -104.67746 | 5381 ft | 17 kts | 91° |
| 2026-05-08 02:50 | 39.85666 | -104.67558 | 5381 ft | 25 kts | 90° |
| 2026-05-08 02:50 | 39.85666 | -104.67296 | 5381 ft | 33 kts | 90° |
| 2026-05-08 02:50 | 39.85667 | -104.66999 | 5381 ft | 29 kts | 90° |
| 2026-05-08 02:50 | 39.85663 | -104.66784 | 5381 ft | 25 kts | 91° |
| 2026-05-08 02:51 | 39.85657 | -104.66539 | 5381 ft | 13 kts | 91° |
| 2026-05-08 02:51 | 39.85658 | -104.66519 | 5381 ft | 4 kts | 82° |
| 2026-05-08 02:51 | 39.85670 | -104.66464 | 5382 ft | 9 kts | 70° |
| 2026-05-08 02:51 | 39.85680 | -104.66359 | 5386 ft | 14 kts | 91° |
| 2026-05-08 02:52 | 39.85710 | -104.66236 | 5390 ft | 17 kts | 26° |
| 2026-05-08 02:52 | 39.85863 | -104.66231 | 5388 ft | 27 kts | 0° |
| 2026-05-08 02:52 | 39.86031 | -104.66229 | 5385 ft | 26 kts | 0° |
| 2026-05-08 02:52 | 39.86241 | -104.66227 | 5382 ft | 27 kts | 0° |
| 2026-05-08 02:53 | 39.86440 | -104.66225 | 5378 ft | 33 kts | 0° |
| 2026-05-08 02:53 | 39.86635 | -104.66224 | 5378 ft | 24 kts | 0° |
| 2026-05-08 02:53 | 39.86840 | -104.66221 | 5373 ft | 35 kts | 1° |
| 2026-05-08 02:53 | 39.87069 | -104.66218 | 5366 ft | 27 kts | 359° |
| 2026-05-08 02:54 | 39.87284 | -104.66218 | 5364 ft | 33 kts | 1° |
| 2026-05-08 02:54 | 39.87501 | -104.66217 | 5361 ft | 23 kts | 359° |
| 2026-05-08 02:54 | 39.87654 | -104.66213 | 5362 ft | 24 kts | 1° |
| 2026-05-08 02:54 | 39.87757 | -104.66142 | 5360 ft | 20 kts | 89° |
| 2026-05-08 02:55 | 39.87755 | -104.66082 | 5359 ft | 0 kts | 91° |
| 2026-05-08 02:55 | 39.87755 | -104.66081 | 5359 ft | 3 kts | 91° |
| 2026-05-08 02:56 | 39.87751 | -104.65715 | 5355 ft | 77 kts | 90° |
| 2026-05-08 02:56 | 39.87748 | -104.64731 | 5343 ft | 138 kts | 90° |
| 2026-05-08 02:56 | 39.87737 | -104.63239 | 5330 ft | 189 kts | 91° |
| 2026-05-08 02:56 | 39.87712 | -104.61450 | 5678 ft | 205 kts | 90° |
| 2026-05-08 02:57 | 39.87605 | -104.59554 | 6249 ft | 217 kts | 101° |
| 2026-05-08 02:57 | 39.87044 | -104.57626 | 6466 ft | 241 kts | 113° |
| 2026-05-08 02:57 | 39.86348 | -104.55522 | 6637 ft | 265 kts | 113° |
| 2026-05-08 02:57 | 39.85588 | -104.53214 | 6990 ft | 288 kts | 113° |
| 2026-05-08 02:58 | 39.84796 | -104.50803 | 7602 ft | 298 kts | 113° |
| 2026-05-08 02:58 | 39.83975 | -104.48307 | 8330 ft | 303 kts | 112° |
| 2026-05-08 02:58 | 39.83134 | -104.45764 | 9102 ft | 308 kts | 113° |
| 2026-05-08 02:58 | 39.82279 | -104.43183 | 9872 ft | 313 kts | 113° |
| 2026-05-08 02:59 | 39.81390 | -104.40499 | 10187 ft | 334 kts | 113° |
| 2026-05-08 02:59 | 39.80439 | -104.37641 | 10500 ft | 352 kts | 113° |
| 2026-05-08 02:59 | 39.79435 | -104.34706 | 11080 ft | 359 kts | 114° |
| 2026-05-08 02:59 | 39.78398 | -104.31725 | 11723 ft | 364 kts | 114° |
| 2026-05-08 03:00 | 39.77342 | -104.28708 | 12363 ft | 369 kts | 114° |
| 2026-05-08 03:00 | 39.76269 | -104.25653 | 12988 ft | 374 kts | 114° |
| 2026-05-08 03:00 | 39.75185 | -104.22568 | 13633 ft | 378 kts | 114° |
| 2026-05-08 03:00 | 39.74090 | -104.19446 | 14257 ft | 380 kts | 114° |
| 2026-05-08 03:01 | 39.72995 | -104.16310 | 14857 ft | 383 kts | 114° |
| 2026-05-08 03:01 | 39.71890 | -104.13139 | 15434 ft | 386 kts | 114° |
| 2026-05-08 03:01 | 39.70769 | -104.09949 | 16007 ft | 390 kts | 114° |
| 2026-05-08 03:01 | 39.69632 | -104.06743 | 16574 ft | 393 kts | 115° |
| 2026-05-08 03:02 | 39.68481 | -104.03507 | 17134 ft | 397 kts | 115° |
| 2026-05-08 03:02 | 39.67317 | -104.00234 | 17693 ft | 401 kts | 115° |
| 2026-05-08 03:02 | 39.66144 | -103.96932 | 18247 ft | 404 kts | 115° |
| 2026-05-08 03:02 | 39.64942 | -103.93615 | 18735 ft | 408 kts | 116° |
| 2026-05-08 03:03 | 39.63657 | -103.90327 | 19230 ft | 411 kts | 118° |
| 2026-05-08 03:03 | 39.62307 | -103.87049 | 19745 ft | 413 kts | 119° |
| 2026-05-08 03:03 | 39.60922 | -103.83772 | 20248 ft | 416 kts | 119° |
| 2026-05-08 03:03 | 39.59535 | -103.80462 | 20737 ft | 419 kts | 116° |
| 2026-05-08 03:04 | 39.58420 | -103.76960 | 21213 ft | 422 kts | 110° |
| 2026-05-08 03:04 | 39.57400 | -103.73376 | 21688 ft | 425 kts | 109° |
| 2026-05-08 03:04 | 39.56388 | -103.69763 | 22155 ft | 428 kts | 109° |
| 2026-05-08 03:04 | 39.55369 | -103.66115 | 22625 ft | 432 kts | 109° |
| 2026-05-08 03:05 | 39.54340 | -103.62450 | 23099 ft | 435 kts | 109° |
| 2026-05-08 03:05 | 39.53298 | -103.58762 | 23557 ft | 438 kts | 109° |
| 2026-05-08 03:05 | 39.52244 | -103.55046 | 23929 ft | 440 kts | 109° |
| 2026-05-08 03:05 | 39.51181 | -103.51313 | 24301 ft | 443 kts | 109° |
| 2026-05-08 03:06 | 39.50123 | -103.47608 | 24665 ft | 446 kts | 109° |
| 2026-05-08 03:06 | 39.49046 | -103.43830 | 25017 ft | 449 kts | 110° |
| 2026-05-08 03:06 | 39.47949 | -103.39980 | 25367 ft | 452 kts | 110° |
| 2026-05-08 03:06 | 39.46857 | -103.36150 | 25675 ft | 455 kts | 109° |
| 2026-05-08 03:07 | 39.45756 | -103.32302 | 26015 ft | 458 kts | 110° |
| 2026-05-08 03:07 | 39.44648 | -103.28431 | 26353 ft | 461 kts | 110° |
| 2026-05-08 03:07 | 39.43530 | -103.24530 | 26682 ft | 463 kts | 110° |
| 2026-05-08 03:07 | 39.42407 | -103.20611 | 27012 ft | 466 kts | 110° |
| 2026-05-08 03:08 | 39.41274 | -103.16672 | 27332 ft | 468 kts | 110° |
| 2026-05-08 03:08 | 39.40133 | -103.12715 | 27678 ft | 471 kts | 110° |
| 2026-05-08 03:08 | 39.38982 | -103.08741 | 27988 ft | 474 kts | 110° |
| 2026-05-08 03:08 | 39.37821 | -103.04737 | 28294 ft | 476 kts | 110° |
| 2026-05-08 03:09 | 39.36654 | -103.00718 | 28619 ft | 479 kts | 110° |
| 2026-05-08 03:09 | 39.35479 | -102.96677 | 28933 ft | 481 kts | 111° |
| 2026-05-08 03:09 | 39.34112 | -102.92723 | 29237 ft | 483 kts | 117° |
| 2026-05-08 03:09 | 39.32592 | -102.88838 | 29551 ft | 486 kts | 117° |
| 2026-05-08 03:10 | 39.31064 | -102.84936 | 29826 ft | 488 kts | 118° |
| 2026-05-08 03:10 | 39.29530 | -102.81024 | 30139 ft | 489 kts | 118° |
| 2026-05-08 03:10 | 39.27990 | -102.77101 | 30413 ft | 491 kts | 118° |
| 2026-05-08 03:10 | 39.26441 | -102.73159 | 30686 ft | 493 kts | 118° |
| 2026-05-08 03:11 | 39.24886 | -102.69209 | 30946 ft | 495 kts | 118° |
| 2026-05-08 03:11 | 39.23324 | -102.65248 | 31179 ft | 496 kts | 118° |
| 2026-05-08 03:11 | 39.21754 | -102.61273 | 31434 ft | 498 kts | 118° |
| 2026-05-08 03:11 | 39.20185 | -102.57300 | 31780 ft | 497 kts | 118° |
| 2026-05-08 03:12 | 39.18615 | -102.53330 | 32131 ft | 496 kts | 118° |
| 2026-05-08 03:12 | 39.17048 | -102.49367 | 32478 ft | 496 kts | 118° |
| 2026-05-08 03:12 | 39.15484 | -102.45414 | 32831 ft | 495 kts | 118° |
| 2026-05-08 03:12 | 39.13918 | -102.41461 | 33137 ft | 495 kts | 118° |
| 2026-05-08 03:13 | 39.12346 | -102.37510 | 33509 ft | 495 kts | 118° |
| 2026-05-08 03:13 | 39.10790 | -102.33630 | 33839 ft | 494 kts | 118° |
| 2026-05-08 03:13 | 39.09211 | -102.29703 | 34148 ft | 494 kts | 118° |
| 2026-05-08 03:13 | 39.07629 | -102.25780 | 34432 ft | 493 kts | 118° |
| 2026-05-08 03:14 | 39.06051 | -102.21862 | 34702 ft | 493 kts | 118° |
| 2026-05-08 03:14 | 39.04474 | -102.17947 | 34923 ft | 493 kts | 118° |
| 2026-05-08 03:14 | 39.02895 | -102.14036 | 35185 ft | 492 kts | 118° |
| 2026-05-08 03:14 | 39.01316 | -102.10129 | 35446 ft | 492 kts | 119° |
| 2026-05-08 03:15 | 38.99739 | -102.06230 | 35701 ft | 492 kts | 119° |
| 2026-05-08 03:15 | 38.98164 | -102.02333 | 35977 ft | 491 kts | 119° |
| 2026-05-08 03:15 | 38.96589 | -101.98437 | 36221 ft | 491 kts | 119° |
| 2026-05-08 03:15 | 38.95013 | -101.94546 | 36412 ft | 491 kts | 119° |
| 2026-05-08 03:16 | 38.93432 | -101.90653 | 36642 ft | 491 kts | 120° |
| 2026-05-08 03:16 | 38.91847 | -101.86763 | 36844 ft | 491 kts | 120° |
| 2026-05-08 03:16 | 38.90262 | -101.82886 | 36905 ft | 491 kts | 120° |
| 2026-05-08 03:17 | 38.87091 | -101.75128 | 36908 ft | 490 kts | 120° |
| 2026-05-08 03:17 | 38.84287 | -101.67168 | 36919 ft | 492 kts | 108° |
| 2026-05-08 03:18 | 38.82229 | -101.58787 | 36902 ft | 493 kts | 109° |
| 2026-05-08 03:18 | 38.80144 | -101.50409 | 36904 ft | 493 kts | 109° |
| 2026-05-08 03:19 | 38.78047 | -101.42034 | 36865 ft | 493 kts | 109° |
| 2026-05-08 03:19 | 38.75957 | -101.33676 | 36892 ft | 492 kts | 109° |
| 2026-05-08 03:20 | 38.73861 | -101.25336 | 36913 ft | 492 kts | 109° |
| 2026-05-08 03:20 | 38.71756 | -101.16986 | 36897 ft | 492 kts | 109° |
| 2026-05-08 03:21 | 38.69647 | -101.08633 | 36892 ft | 493 kts | 109° |
| 2026-05-08 03:21 | 38.67534 | -101.00290 | 36891 ft | 493 kts | 109° |
| 2026-05-08 03:22 | 38.65413 | -100.91946 | 36930 ft | 493 kts | 110° |
| 2026-05-08 03:22 | 38.63276 | -100.83605 | 36935 ft | 493 kts | 110° |
| 2026-05-08 03:23 | 38.61151 | -100.75323 | 36925 ft | 492 kts | 110° |
| 2026-05-08 03:23 | 38.59007 | -100.66956 | 36932 ft | 492 kts | 110° |
| 2026-05-08 03:24 | 38.56864 | -100.58655 | 36920 ft | 492 kts | 110° |
| 2026-05-08 03:24 | 38.54715 | -100.50355 | 36904 ft | 492 kts | 110° |
| 2026-05-08 03:25 | 38.52553 | -100.42058 | 36879 ft | 493 kts | 110° |
| 2026-05-08 03:25 | 38.50387 | -100.33753 | 36878 ft | 493 kts | 110° |
| 2026-05-08 03:26 | 38.48224 | -100.25436 | 36880 ft | 494 kts | 110° |
| 2026-05-08 03:26 | 38.46050 | -100.17127 | 36896 ft | 494 kts | 110° |
| 2026-05-08 03:27 | 38.43871 | -100.08864 | 36853 ft | 495 kts | 110° |
| 2026-05-08 03:27 | 38.41649 | -100.00488 | 36873 ft | 496 kts | 110° |
| 2026-05-08 03:28 | 38.39442 | -99.92148 | 36874 ft | 496 kts | 110° |
| 2026-05-08 03:28 | 38.37601 | -99.85218 | 36886 ft | 497 kts | 110° |
| 2026-05-08 03:29 | 38.35371 | -99.76878 | 36890 ft | 498 kts | 111° |
| 2026-05-08 03:29 | 38.33139 | -99.68519 | 36885 ft | 498 kts | 111° |
| 2026-05-08 03:30 | 38.29783 | -99.55980 | 36890 ft | 499 kts | 111° |
| 2026-05-08 03:31 | 38.25260 | -99.39257 | 36885 ft | 500 kts | 112° |
| 2026-05-08 03:32 | 38.21846 | -99.26728 | 36918 ft | 500 kts | 112° |
| 2026-05-08 03:32 | 38.19574 | -99.18371 | 36925 ft | 500 kts | 112° |
| 2026-05-08 03:33 | 38.17317 | -99.10070 | 36928 ft | 500 kts | 112° |
| 2026-05-08 03:33 | 38.15033 | -99.01722 | 36930 ft | 500 kts | 112° |
| 2026-05-08 03:34 | 38.12729 | -98.93376 | 36922 ft | 501 kts | 112° |
| 2026-05-08 03:34 | 38.10411 | -98.85031 | 36911 ft | 501 kts | 112° |
| 2026-05-08 03:35 | 38.08099 | -98.76687 | 36899 ft | 501 kts | 112° |
| 2026-05-08 03:35 | 38.05783 | -98.68341 | 36896 ft | 501 kts | 113° |
| 2026-05-08 03:36 | 38.03504 | -98.60174 | 36871 ft | 498 kts | 113° |
| 2026-05-08 03:36 | 38.02373 | -98.56111 | 36899 ft | 479 kts | 113° |
| 2026-05-08 03:36 | 38.01288 | -98.52202 | 36891 ft | 461 kts | 114° |
| 2026-05-08 03:37 | 37.99179 | -98.44677 | 36896 ft | 448 kts | 114° |
| 2026-05-08 03:37 | 37.97088 | -98.37291 | 36897 ft | 441 kts | 114° |
| 2026-05-08 03:38 | 37.95031 | -98.30023 | 36890 ft | 435 kts | 115° |
| 2026-05-08 03:38 | 37.93347 | -98.24065 | 36892 ft | 429 kts | 115° |
| 2026-05-08 03:39 | 37.91349 | -98.17002 | 36889 ft | 422 kts | 115° |
| 2026-05-08 03:39 | 37.89384 | -98.10067 | 36889 ft | 414 kts | 115° |
| 2026-05-08 03:40 | 37.87454 | -98.03275 | 36889 ft | 406 kts | 116° |
| 2026-05-08 03:40 | 37.85552 | -97.96628 | 36899 ft | 397 kts | 116° |
| 2026-05-08 03:40 | 37.84606 | -97.93349 | 36747 ft | 397 kts | 116° |
| 2026-05-08 03:41 | 37.83636 | -97.90036 | 36573 ft | 405 kts | 116° |
| 2026-05-08 03:41 | 37.82657 | -97.86735 | 36692 ft | 403 kts | 117° |
| 2026-05-08 03:41 | 37.81674 | -97.83443 | 36997 ft | 396 kts | 117° |
| 2026-05-08 03:41 | 37.80701 | -97.80198 | 37113 ft | 395 kts | 118° |
| 2026-05-08 03:42 | 37.79707 | -97.76929 | 36966 ft | 402 kts | 118° |
| 2026-05-08 03:42 | 37.77614 | -97.70231 | 36277 ft | 429 kts | 118° |
| 2026-05-08 03:42 | 37.76367 | -97.66578 | 34747 ft | 478 kts | 119° |
| 2026-05-08 03:43 | 37.74854 | -97.62652 | 34014 ft | 506 kts | 121° |
| 2026-05-08 03:43 | 37.73234 | -97.58708 | 33784 ft | 505 kts | 117° |
| 2026-05-08 03:43 | 37.71996 | -97.54532 | 34032 ft | 508 kts | 112° |
| 2026-05-08 03:43 | 37.70858 | -97.50314 | 34320 ft | 506 kts | 113° |
| 2026-05-08 03:44 | 37.69609 | -97.46165 | 34657 ft | 504 kts | 117° |
| 2026-05-08 03:44 | 37.68184 | -97.42143 | 34918 ft | 502 kts | 121° |
| 2026-05-08 03:44 | 37.66595 | -97.38228 | 35161 ft | 500 kts | 124° |
| 2026-05-08 03:44 | 37.64907 | -97.34395 | 35388 ft | 499 kts | 125° |
| 2026-05-08 03:45 | 37.63188 | -97.30587 | 35619 ft | 500 kts | 126° |
| 2026-05-08 03:45 | 37.61482 | -97.26760 | 35866 ft | 501 kts | 125° |
| 2026-05-08 03:45 | 37.59817 | -97.22902 | 36100 ft | 502 kts | 124° |
| 2026-05-08 03:45 | 37.58185 | -97.18999 | 36331 ft | 503 kts | 123° |
| 2026-05-08 03:46 | 37.56580 | -97.15084 | 36548 ft | 503 kts | 123° |
| 2026-05-08 03:46 | 37.54980 | -97.11155 | 36760 ft | 504 kts | 123° |
| 2026-05-08 03:46 | 37.53374 | -97.07221 | 36917 ft | 505 kts | 124° |
| 2026-05-08 03:47 | 37.50132 | -96.99373 | 36912 ft | 504 kts | 124° |
| 2026-05-08 03:47 | 37.46852 | -96.91563 | 36952 ft | 505 kts | 125° |
| 2026-05-08 03:48 | 37.43564 | -96.83762 | 36953 ft | 505 kts | 126° |
| 2026-05-08 03:48 | 37.40267 | -96.75938 | 36959 ft | 506 kts | 125° |
| 2026-05-08 03:49 | 37.36969 | -96.68109 | 36962 ft | 507 kts | 125° |
| 2026-05-08 03:49 | 37.33669 | -96.60283 | 36964 ft | 507 kts | 125° |
| 2026-05-08 03:50 | 37.30364 | -96.52464 | 36977 ft | 507 kts | 125° |
| 2026-05-08 03:50 | 37.27056 | -96.44657 | 36951 ft | 507 kts | 126° |
| 2026-05-08 03:51 | 37.23727 | -96.36847 | 36957 ft | 507 kts | 126° |
| 2026-05-08 03:51 | 37.20391 | -96.29033 | 36963 ft | 508 kts | 126° |
| 2026-05-08 03:52 | 37.17049 | -96.21215 | 36973 ft | 508 kts | 126° |
| 2026-05-08 03:52 | 37.13704 | -96.13401 | 36986 ft | 508 kts | 126° |
| 2026-05-08 03:53 | 37.10379 | -96.05656 | 37007 ft | 509 kts | 127° |
| 2026-05-08 03:53 | 37.07011 | -95.97838 | 36958 ft | 510 kts | 127° |
| 2026-05-08 03:54 | 37.03622 | -95.89998 | 36975 ft | 513 kts | 127° |
| 2026-05-08 03:54 | 37.00225 | -95.82147 | 36981 ft | 514 kts | 127° |
| 2026-05-08 03:55 | 36.96824 | -95.74283 | 36986 ft | 514 kts | 127° |
| 2026-05-08 03:55 | 36.93405 | -95.66439 | 36982 ft | 514 kts | 128° |
| 2026-05-08 03:56 | 36.89973 | -95.58580 | 36985 ft | 516 kts | 128° |
| 2026-05-08 03:56 | 36.86543 | -95.50699 | 36983 ft | 517 kts | 128° |
| 2026-05-08 03:57 | 36.83085 | -95.42791 | 37006 ft | 521 kts | 128° |
| 2026-05-08 03:57 | 36.79604 | -95.34867 | 37014 ft | 520 kts | 128° |
| 2026-05-08 03:58 | 36.76137 | -95.27000 | 37010 ft | 521 kts | 128° |
| 2026-05-08 03:58 | 36.72640 | -95.19084 | 37013 ft | 521 kts | 129° |
| 2026-05-08 03:59 | 36.69116 | -95.11110 | 37008 ft | 522 kts | 129° |
| 2026-05-08 03:59 | 36.65610 | -95.03190 | 37020 ft | 522 kts | 129° |
| 2026-05-08 04:00 | 36.62118 | -94.95319 | 37042 ft | 523 kts | 129° |
| 2026-05-08 04:00 | 36.58564 | -94.87338 | 37047 ft | 524 kts | 129° |
| 2026-05-08 04:01 | 36.55044 | -94.79457 | 37049 ft | 524 kts | 129° |
| 2026-05-08 04:01 | 36.51479 | -94.71478 | 37052 ft | 524 kts | 129° |
| 2026-05-08 04:02 | 36.47954 | -94.63617 | 37051 ft | 524 kts | 130° |
| 2026-05-08 04:02 | 36.44395 | -94.55726 | 37051 ft | 524 kts | 130° |
| 2026-05-08 04:03 | 36.40825 | -94.47819 | 37030 ft | 525 kts | 130° |
| 2026-05-08 04:03 | 36.35456 | -94.35924 | 37078 ft | 527 kts | 130° |
| 2026-05-08 04:04 | 36.31869 | -94.27998 | 37079 ft | 527 kts | 130° |
| 2026-05-08 04:04 | 36.28269 | -94.20095 | 37092 ft | 527 kts | 130° |
| 2026-05-08 04:05 | 36.24926 | -94.11932 | 37045 ft | 542 kts | 119° |
| 2026-05-08 04:05 | 36.23053 | -94.02757 | 37042 ft | 554 kts | 108° |
| 2026-05-08 04:06 | 36.21484 | -93.93418 | 37047 ft | 554 kts | 109° |
| 2026-05-08 04:06 | 36.19879 | -93.84078 | 37047 ft | 555 kts | 109° |
| 2026-05-08 04:07 | 36.18265 | -93.74738 | 37022 ft | 556 kts | 109° |
| 2026-05-08 04:07 | 36.16649 | -93.65340 | 37058 ft | 558 kts | 109° |
| 2026-05-08 04:08 | 36.15034 | -93.55943 | 37064 ft | 558 kts | 109° |
| 2026-05-08 04:08 | 36.13398 | -93.46544 | 37071 ft | 558 kts | 109° |
| 2026-05-08 04:09 | 36.11765 | -93.37226 | 37072 ft | 558 kts | 109° |
| 2026-05-08 04:09 | 36.10116 | -93.27854 | 37070 ft | 558 kts | 109° |
| 2026-05-08 04:10 | 36.08457 | -93.18488 | 37074 ft | 558 kts | 109° |
| 2026-05-08 04:10 | 36.06794 | -93.09120 | 37073 ft | 558 kts | 109° |
| 2026-05-08 04:11 | 36.05122 | -92.99755 | 37067 ft | 558 kts | 109° |
| 2026-05-08 04:11 | 36.03440 | -92.90396 | 37057 ft | 558 kts | 109° |
| 2026-05-08 04:12 | 36.01753 | -92.81024 | 37055 ft | 560 kts | 110° |
| 2026-05-08 04:12 | 36.00034 | -92.71548 | 37067 ft | 571 kts | 109° |
| 2026-05-08 04:13 | 35.98284 | -92.61887 | 37071 ft | 582 kts | 109° |
| 2026-05-08 04:13 | 35.96491 | -92.52069 | 37070 ft | 591 kts | 109° |
| 2026-05-08 04:14 | 35.94651 | -92.42090 | 37068 ft | 601 kts | 109° |
| 2026-05-08 04:14 | 35.93722 | -92.37053 | 37267 ft | 600 kts | 109° |
| 2026-05-08 04:14 | 35.92807 | -92.32059 | 37809 ft | 593 kts | 109° |
| 2026-05-08 04:15 | 35.91912 | -92.27140 | 38329 ft | 582 kts | 109° |
| 2026-05-08 04:15 | 35.91028 | -92.22290 | 38090 ft | 577 kts | 109° |
| 2026-05-08 04:15 | 35.90134 | -92.17466 | 37780 ft | 575 kts | 110° |
| 2026-05-08 04:15 | 35.89237 | -92.12687 | 37479 ft | 572 kts | 110° |
| 2026-05-08 04:16 | 35.88337 | -92.07914 | 37180 ft | 570 kts | 110° |
| 2026-05-08 04:16 | 35.87440 | -92.03165 | 36879 ft | 567 kts | 110° |
| 2026-05-08 04:16 | 35.86546 | -91.98438 | 36593 ft | 565 kts | 110° |
| 2026-05-08 04:16 | 35.85660 | -91.93735 | 36298 ft | 563 kts | 110° |
| 2026-05-08 04:17 | 35.84775 | -91.89044 | 36005 ft | 561 kts | 110° |
| 2026-05-08 04:17 | 35.83891 | -91.84356 | 35709 ft | 560 kts | 110° |
| 2026-05-08 04:17 | 35.83007 | -91.79696 | 35433 ft | 558 kts | 110° |
| 2026-05-08 04:17 | 35.82093 | -91.75047 | 35153 ft | 553 kts | 115° |
| 2026-05-08 04:18 | 35.80795 | -91.70739 | 34896 ft | 537 kts | 125° |
| 2026-05-08 04:18 | 35.79230 | -91.66497 | 34622 ft | 535 kts | 125° |
| 2026-05-08 04:18 | 35.77710 | -91.62383 | 34358 ft | 533 kts | 125° |
| 2026-05-08 04:18 | 35.76172 | -91.58229 | 33937 ft | 535 kts | 125° |
| 2026-05-08 04:19 | 35.74603 | -91.54028 | 33088 ft | 545 kts | 124° |
| 2026-05-08 04:19 | 35.72998 | -91.49713 | 32578 ft | 546 kts | 123° |
| 2026-05-08 04:19 | 35.71448 | -91.45517 | 32213 ft | 545 kts | 122° |
| 2026-05-08 04:19 | 35.69889 | -91.41283 | 31883 ft | 542 kts | 122° |
| 2026-05-08 04:20 | 35.68338 | -91.37072 | 31567 ft | 539 kts | 122° |
| 2026-05-08 04:20 | 35.66791 | -91.32884 | 31259 ft | 536 kts | 122° |
| 2026-05-08 04:20 | 35.65247 | -91.28724 | 30943 ft | 533 kts | 121° |
| 2026-05-08 04:20 | 35.63710 | -91.24601 | 30732 ft | 527 kts | 121° |
| 2026-05-08 04:21 | 35.62193 | -91.20539 | 30621 ft | 519 kts | 121° |
| 2026-05-08 04:21 | 35.60693 | -91.16535 | 30490 ft | 511 kts | 121° |
| 2026-05-08 04:21 | 35.59215 | -91.12593 | 30280 ft | 506 kts | 121° |
| 2026-05-08 04:21 | 35.57743 | -91.08672 | 29961 ft | 504 kts | 121° |
| 2026-05-08 04:22 | 35.56774 | -91.06091 | 29743 ft | 502 kts | 121° |
| 2026-05-08 04:22 | 35.55317 | -91.02218 | 29445 ft | 498 kts | 121° |
| 2026-05-08 04:22 | 35.53867 | -90.98365 | 29163 ft | 495 kts | 121° |
| 2026-05-08 04:22 | 35.52429 | -90.94539 | 28884 ft | 491 kts | 121° |
| 2026-05-08 04:23 | 35.51001 | -90.90747 | 28591 ft | 488 kts | 121° |
| 2026-05-08 04:23 | 35.49582 | -90.86983 | 28289 ft | 484 kts | 121° |
| 2026-05-08 04:23 | 35.48170 | -90.83249 | 28006 ft | 482 kts | 121° |
| 2026-05-08 04:23 | 35.46761 | -90.79531 | 27746 ft | 478 kts | 121° |
| 2026-05-08 04:24 | 35.45363 | -90.75843 | 27497 ft | 475 kts | 121° |
| 2026-05-08 04:24 | 35.43973 | -90.72174 | 27219 ft | 474 kts | 121° |
| 2026-05-08 04:24 | 35.42594 | -90.68528 | 26846 ft | 469 kts | 120° |
| 2026-05-08 04:24 | 35.41231 | -90.64922 | 26354 ft | 463 kts | 120° |
| 2026-05-08 04:25 | 35.39876 | -90.61364 | 25901 ft | 457 kts | 120° |
| 2026-05-08 04:25 | 35.38512 | -90.57812 | 25433 ft | 451 kts | 120° |
| 2026-05-08 04:25 | 35.37185 | -90.54363 | 24987 ft | 445 kts | 120° |
| 2026-05-08 04:25 | 35.35878 | -90.50966 | 24545 ft | 438 kts | 119° |
| 2026-05-08 04:26 | 35.34512 | -90.47721 | 24110 ft | 428 kts | 128° |
| 2026-05-08 04:26 | 35.32751 | -90.44859 | 23654 ft | 416 kts | 135° |
| 2026-05-08 04:26 | 35.30919 | -90.42145 | 23082 ft | 411 kts | 135° |
| 2026-05-08 04:26 | 35.29111 | -90.39450 | 22514 ft | 407 kts | 135° |
| 2026-05-08 04:27 | 35.27334 | -90.36783 | 21963 ft | 402 kts | 135° |
| 2026-05-08 04:27 | 35.25552 | -90.34106 | 20858 ft | 412 kts | 134° |
| 2026-05-08 04:27 | 35.23702 | -90.31347 | 19614 ft | 426 kts | 134° |
| 2026-05-08 04:27 | 35.21815 | -90.28540 | 18470 ft | 437 kts | 134° |
| 2026-05-08 04:28 | 35.19905 | -90.25685 | 18013 ft | 424 kts | 134° |
| 2026-05-08 04:28 | 35.18088 | -90.22952 | 17875 ft | 402 kts | 134° |
| 2026-05-08 04:28 | 35.16347 | -90.20339 | 17209 ft | 397 kts | 134° |
| 2026-05-08 04:28 | 35.14631 | -90.17780 | 17030 ft | 379 kts | 134° |
| 2026-05-08 04:29 | 35.12997 | -90.15344 | 16897 ft | 362 kts | 134° |
| 2026-05-08 04:29 | 35.11407 | -90.13053 | 16762 ft | 343 kts | 142° |
| 2026-05-08 04:29 | 35.09544 | -90.11504 | 16634 ft | 310 kts | 167° |
| 2026-05-08 04:29 | 35.07553 | -90.10934 | 16457 ft | 281 kts | 188° |
| 2026-05-08 04:30 | 35.05640 | -90.10943 | 16230 ft | 271 kts | 191° |
| 2026-05-08 04:30 | 35.03772 | -90.10976 | 16099 ft | 267 kts | 191° |
| 2026-05-08 04:30 | 35.01887 | -90.11015 | 15615 ft | 275 kts | 190° |
| 2026-05-08 04:30 | 34.99958 | -90.10996 | 15132 ft | 279 kts | 188° |
| 2026-05-08 04:31 | 34.98008 | -90.10934 | 14633 ft | 282 kts | 187° |
| 2026-05-08 04:31 | 34.96039 | -90.10855 | 14167 ft | 284 kts | 186° |
| 2026-05-08 04:31 | 34.94059 | -90.10772 | 13686 ft | 286 kts | 186° |
| 2026-05-08 04:31 | 34.92092 | -90.10692 | 13166 ft | 287 kts | 186° |
| 2026-05-08 04:32 | 34.90094 | -90.10617 | 12654 ft | 288 kts | 186° |
| 2026-05-08 04:32 | 34.88082 | -90.10546 | 12150 ft | 289 kts | 185° |
| 2026-05-08 04:32 | 34.86069 | -90.10472 | 11643 ft | 290 kts | 185° |
| 2026-05-08 04:32 | 34.84048 | -90.10399 | 11171 ft | 291 kts | 185° |
| 2026-05-08 04:33 | 34.82021 | -90.10330 | 10691 ft | 291 kts | 184° |
| 2026-05-08 04:33 | 34.79999 | -90.10264 | 10220 ft | 291 kts | 184° |
| 2026-05-08 04:33 | 34.77970 | -90.10176 | 9726 ft | 292 kts | 182° |
| 2026-05-08 04:33 | 34.75937 | -90.10055 | 9207 ft | 292 kts | 181° |
| 2026-05-08 04:34 | 34.73904 | -90.09921 | 8699 ft | 292 kts | 181° |
| 2026-05-08 04:34 | 34.71879 | -90.09785 | 8191 ft | 291 kts | 180° |
| 2026-05-08 04:34 | 34.69856 | -90.09621 | 7694 ft | 291 kts | 174° |
| 2026-05-08 04:34 | 34.67967 | -90.08764 | 7206 ft | 293 kts | 146° |
| 2026-05-08 04:35 | 34.66578 | -90.06979 | 6725 ft | 292 kts | 118° |
| 2026-05-08 04:35 | 34.65989 | -90.04654 | 6233 ft | 288 kts | 91° |
| 2026-05-08 04:35 | 34.66318 | -90.02294 | 5722 ft | 283 kts | 64° |
| 2026-05-08 04:35 | 34.67474 | -90.00433 | 5288 ft | 274 kts | 36° |
| 2026-05-08 04:36 | 34.69160 | -89.99501 | 4991 ft | 263 kts | 8° |
| 2026-05-08 04:36 | 34.70956 | -89.99391 | 4687 ft | 255 kts | 359° |
| 2026-05-08 04:36 | 34.72691 | -89.99282 | 4367 ft | 248 kts | 15° |
| 2026-05-08 04:36 | 34.74205 | -89.98387 | 4086 ft | 238 kts | 27° |
| 2026-05-08 04:37 | 34.75754 | -89.97928 | 3775 ft | 226 kts | 355° |
| 2026-05-08 04:37 | 34.77292 | -89.98113 | 3471 ft | 219 kts | 356° |
| 2026-05-08 04:37 | 34.78792 | -89.98183 | 3169 ft | 212 kts | 358° |
| 2026-05-08 04:37 | 34.80231 | -89.98216 | 3011 ft | 200 kts | 359° |
| 2026-05-08 04:38 | 34.81599 | -89.98244 | 3008 ft | 195 kts | 359° |
| 2026-05-08 04:38 | 34.82951 | -89.98273 | 3010 ft | 193 kts | 359° |
| 2026-05-08 04:38 | 34.84294 | -89.98301 | 3024 ft | 193 kts | 359° |
| 2026-05-08 04:38 | 34.85634 | -89.98330 | 3016 ft | 192 kts | 359° |
| 2026-05-08 04:39 | 34.86976 | -89.98359 | 3017 ft | 192 kts | 359° |
| 2026-05-08 04:39 | 34.88296 | -89.98387 | 2993 ft | 193 kts | 359° |
| 2026-05-08 04:39 | 34.89637 | -89.98416 | 2806 ft | 192 kts | 359° |
| 2026-05-08 04:39 | 34.90967 | -89.98444 | 2576 ft | 191 kts | 359° |
| 2026-05-08 04:40 | 34.92296 | -89.98473 | 2328 ft | 191 kts | 359° |
| 2026-05-08 04:40 | 34.93616 | -89.98501 | 2115 ft | 187 kts | 359° |
| 2026-05-08 04:40 | 34.94912 | -89.98529 | 1824 ft | 185 kts | 360° |
| 2026-05-08 04:40 | 34.96187 | -89.98556 | 1574 ft | 181 kts | 360° |
| 2026-05-08 04:41 | 34.97419 | -89.98583 | 1338 ft | 173 kts | 359° |
| 2026-05-08 04:41 | 34.98604 | -89.98608 | 1110 ft | 167 kts | 359° |
| 2026-05-08 04:41 | 34.99750 | -89.98633 | 894 ft | 162 kts | 359° |
| 2026-05-08 04:41 | 35.00862 | -89.98656 | 680 ft | 156 kts | 359° |
| 2026-05-08 04:42 | 35.01920 | -89.98679 | 473 ft | 149 kts | 358° |
| 2026-05-08 04:42 | 35.02941 | -89.98701 | 331 ft | 137 kts | 359° |
| 2026-05-08 04:42 | 35.03768 | -89.98719 | 330 ft | 95 kts | 359° |
| 2026-05-08 04:42 | 35.04175 | -89.98710 | 329 ft | 21 kts | 34° |
| 2026-05-08 04:43 | 35.04183 | -89.98640 | 329 ft | 8 kts | 84° |
| 2026-05-08 04:43 | 35.04186 | -89.98592 | 330 ft | 1 kts | 89° |
| 2026-05-08 04:43 | 35.04186 | -89.98586 | 330 ft | 0 kts | 89° |
| 2026-05-08 04:44 | 35.04186 | -89.98580 | 330 ft | 5 kts | 89° |
| 2026-05-08 04:44 | 35.04186 | -89.98519 | 330 ft | 9 kts | 90° |
| 2026-05-08 04:44 | 35.04195 | -89.98417 | 330 ft | 15 kts | 73° |
| 2026-05-08 04:44 | 35.04253 | -89.98288 | 330 ft | 19 kts | 38° |
| 2026-05-08 04:45 | 35.04321 | -89.98221 | 330 ft | 8 kts | 88° |
| 2026-05-08 04:45 | 35.04320 | -89.98210 | 329 ft | 1 kts | 94° |
| 2026-05-08 04:45 | 35.04320 | -89.98208 | 330 ft | 0 kts | 95° |
| 2026-05-08 04:46 | 35.04322 | -89.98212 | 330 ft | 0 kts | 89° |